sensor_id;sensor_type;location;lat;lon;timestamp;P1;durP1;ratioP1;P2;durP2;ratioP2
39750;SDS011;37579;51.074;17.004;2022-11-20T00:02:24;10.45;;;7.72;;
39750;SDS011;37579;51.074;17.004;2022-11-20T00:04:51;10.82;;;7.57;;
39750;SDS011;37579;51.074;17.004;2022-11-20T00:07:16;11.23;;;7.78;;
39750;SDS011;37579;51.074;17.004;2022-11-20T00:09:42;10.15;;;7.40;;
39750;SDS011;37579;51.074;17.004;2022-11-20T00:12:08;11.45;;;7.93;;
39750;SDS011;37579;51.074;17.004;2022-11-20T00:14:34;11.18;;;7.72;;
39750;SDS011;37579;51.074;17.004;2022-11-20T00:16:59;9.90;;;7.38;;
39750;SDS011;37579;51.074;17.004;2022-11-20T00:19:25;11.60;;;7.85;;
39750;SDS011;37579;51.074;17.004;2022-11-20T00:21:51;10.43;;;7.65;;
39750;SDS011;37579;51.074;17.004;2022-11-20T00:24:18;11.57;;;8.00;;
39750;SDS011;37579;51.074;17.004;2022-11-20T00:26:44;11.48;;;8.15;;
39750;SDS011;37579;51.074;17.004;2022-11-20T00:29:10;10.35;;;7.65;;
39750;SDS011;37579;51.074;17.004;2022-11-20T00:31:36;12.77;;;8.25;;
39750;SDS011;37579;51.074;17.004;2022-11-20T00:34:02;10.73;;;7.82;;
39750;SDS011;37579;51.074;17.004;2022-11-20T00:36:28;11.60;;;7.95;;
39750;SDS011;37579;51.074;17.004;2022-11-20T00:38:57;11.43;;;8.32;;
39750;SDS011;37579;51.074;17.004;2022-11-20T00:41:24;12.00;;;8.50;;
39750;SDS011;37579;51.074;17.004;2022-11-20T00:43:53;11.85;;;7.97;;
39750;SDS011;37579;51.074;17.004;2022-11-20T00:46:24;12.57;;;8.25;;
39750;SDS011;37579;51.074;17.004;2022-11-20T00:48:51;10.75;;;7.85;;
39750;SDS011;37579;51.074;17.004;2022-11-20T00:51:18;9.50;;;7.88;;
39750;SDS011;37579;51.074;17.004;2022-11-20T00:53:46;11.57;;;8.20;;
39750;SDS011;37579;51.074;17.004;2022-11-20T00:56:13;12.30;;;8.40;;
39750;SDS011;37579;51.074;17.004;2022-11-20T00:58:41;10.35;;;7.75;;
39750;SDS011;37579;51.074;17.004;2022-11-20T01:01:13;10.77;;;7.93;;
39750;SDS011;37579;51.074;17.004;2022-11-20T01:03:47;10.73;;;8.00;;
39750;SDS011;37579;51.074;17.004;2022-11-20T01:06:16;11.52;;;8.48;;
39750;SDS011;37579;51.074;17.004;2022-11-20T01:08:45;12.40;;;8.52;;
39750;SDS011;37579;51.074;17.004;2022-11-20T01:11:16;12.50;;;8.68;;
39750;SDS011;37579;51.074;17.004;2022-11-20T01:13:44;11.77;;;8.35;;
39750;SDS011;37579;51.074;17.004;2022-11-20T01:16:12;11.90;;;8.63;;
39750;SDS011;37579;51.074;17.004;2022-11-20T01:18:40;12.27;;;8.15;;
39750;SDS011;37579;51.074;17.004;2022-11-20T01:21:08;12.50;;;8.93;;
39750;SDS011;37579;51.074;17.004;2022-11-20T01:23:40;12.75;;;8.77;;
39750;SDS011;37579;51.074;17.004;2022-11-20T01:26:08;12.07;;;8.52;;
39750;SDS011;37579;51.074;17.004;2022-11-20T01:28:38;11.95;;;7.72;;
39750;SDS011;37579;51.074;17.004;2022-11-20T01:34:02;11.15;;;8.40;;
39750;SDS011;37579;51.074;17.004;2022-11-20T01:36:32;12.85;;;8.90;;
39750;SDS011;37579;51.074;17.004;2022-11-20T01:39:01;11.23;;;7.88;;
39750;SDS011;37579;51.074;17.004;2022-11-20T01:41:32;11.30;;;8.20;;
39750;SDS011;37579;51.074;17.004;2022-11-20T01:44:18;11.32;;;8.23;;
39750;SDS011;37579;51.074;17.004;2022-11-20T01:46:59;9.05;;;7.50;;
39750;SDS011;37579;51.074;17.004;2022-11-20T01:49:37;10.40;;;7.90;;
39750;SDS011;37579;51.074;17.004;2022-11-20T01:52:09;11.18;;;8.00;;
39750;SDS011;37579;51.074;17.004;2022-11-20T01:54:45;12.05;;;8.02;;
39750;SDS011;37579;51.074;17.004;2022-11-20T01:57:25;10.93;;;7.90;;
39750;SDS011;37579;51.074;17.004;2022-11-20T01:59:59;11.38;;;8.55;;
39750;SDS011;37579;51.074;17.004;2022-11-20T02:02:37;11.17;;;8.63;;
39750;SDS011;37579;51.074;17.004;2022-11-20T02:05:12;12.25;;;8.50;;
39750;SDS011;37579;51.074;17.004;2022-11-20T02:07:43;11.70;;;8.38;;
39750;SDS011;37579;51.074;17.004;2022-11-20T02:10:10;11.27;;;8.15;;
39750;SDS011;37579;51.074;17.004;2022-11-20T02:12:36;10.75;;;8.02;;
39750;SDS011;37579;51.074;17.004;2022-11-20T02:15:20;11.13;;;8.05;;
39750;SDS011;37579;51.074;17.004;2022-11-20T02:17:46;10.60;;;7.57;;
39750;SDS011;37579;51.074;17.004;2022-11-20T02:20:12;11.27;;;7.72;;
39750;SDS011;37579;51.074;17.004;2022-11-20T02:22:41;11.20;;;8.35;;
39750;SDS011;37579;51.074;17.004;2022-11-20T02:25:16;11.57;;;8.02;;
39750;SDS011;37579;51.074;17.004;2022-11-20T02:27:42;10.48;;;8.20;;
39750;SDS011;37579;51.074;17.004;2022-11-20T02:30:08;11.02;;;7.88;;
39750;SDS011;37579;51.074;17.004;2022-11-20T02:32:36;12.75;;;8.27;;
39750;SDS011;37579;51.074;17.004;2022-11-20T02:35:06;10.50;;;7.90;;
39750;SDS011;37579;51.074;17.004;2022-11-20T02:37:56;11.88;;;8.05;;
39750;SDS011;37579;51.074;17.004;2022-11-20T02:40:26;12.57;;;8.45;;
39750;SDS011;37579;51.074;17.004;2022-11-20T02:42:52;11.48;;;8.40;;
39750;SDS011;37579;51.074;17.004;2022-11-20T02:45:18;10.23;;;7.57;;
39750;SDS011;37579;51.074;17.004;2022-11-20T02:47:44;11.15;;;8.57;;
39750;SDS011;37579;51.074;17.004;2022-11-20T02:50:10;12.50;;;8.27;;
39750;SDS011;37579;51.074;17.004;2022-11-20T02:52:36;12.93;;;8.35;;
39750;SDS011;37579;51.074;17.004;2022-11-20T02:55:03;11.00;;;7.78;;
39750;SDS011;37579;51.074;17.004;2022-11-20T02:57:29;12.35;;;8.27;;
39750;SDS011;37579;51.074;17.004;2022-11-20T02:59:54;11.45;;;7.93;;
39750;SDS011;37579;51.074;17.004;2022-11-20T03:02:20;11.88;;;8.40;;
39750;SDS011;37579;51.074;17.004;2022-11-20T03:04:46;10.93;;;7.78;;
39750;SDS011;37579;51.074;17.004;2022-11-20T03:07:12;11.10;;;7.75;;
39750;SDS011;37579;51.074;17.004;2022-11-20T03:09:38;11.45;;;8.00;;
39750;SDS011;37579;51.074;17.004;2022-11-20T03:12:03;10.48;;;7.63;;
39750;SDS011;37579;51.074;17.004;2022-11-20T03:14:29;9.65;;;7.80;;
39750;SDS011;37579;51.074;17.004;2022-11-20T03:16:55;10.73;;;8.23;;
39750;SDS011;37579;51.074;17.004;2022-11-20T03:19:21;12.18;;;8.48;;
39750;SDS011;37579;51.074;17.004;2022-11-20T03:21:47;12.02;;;8.15;;
39750;SDS011;37579;51.074;17.004;2022-11-20T03:24:13;10.38;;;7.80;;
39750;SDS011;37579;51.074;17.004;2022-11-20T03:26:38;11.02;;;7.68;;
39750;SDS011;37579;51.074;17.004;2022-11-20T03:29:05;9.88;;;7.20;;
39750;SDS011;37579;51.074;17.004;2022-11-20T03:31:32;11.07;;;8.15;;
39750;SDS011;37579;51.074;17.004;2022-11-20T03:33:59;9.52;;;7.40;;
39750;SDS011;37579;51.074;17.004;2022-11-20T03:36:26;10.02;;;7.28;;
39750;SDS011;37579;51.074;17.004;2022-11-20T03:38:55;11.65;;;7.82;;
39750;SDS011;37579;51.074;17.004;2022-11-20T03:41:22;10.98;;;7.88;;
39750;SDS011;37579;51.074;17.004;2022-11-20T03:43:50;11.23;;;7.55;;
39750;SDS011;37579;51.074;17.004;2022-11-20T03:46:17;10.27;;;7.60;;
39750;SDS011;37579;51.074;17.004;2022-11-20T03:48:43;10.32;;;8.02;;
39750;SDS011;37579;51.074;17.004;2022-11-20T03:51:16;9.70;;;7.47;;
39750;SDS011;37579;51.074;17.004;2022-11-20T03:53:43;9.57;;;6.70;;
39750;SDS011;37579;51.074;17.004;2022-11-20T03:56:10;11.07;;;8.27;;
39750;SDS011;37579;51.074;17.004;2022-11-20T03:58:38;10.20;;;7.45;;
39750;SDS011;37579;51.074;17.004;2022-11-20T04:01:06;11.73;;;8.15;;
39750;SDS011;37579;51.074;17.004;2022-11-20T04:03:36;9.57;;;7.25;;
39750;SDS011;37579;51.074;17.004;2022-11-20T04:06:03;9.05;;;7.00;;
39750;SDS011;37579;51.074;17.004;2022-11-20T04:08:33;9.43;;;7.00;;
39750;SDS011;37579;51.074;17.004;2022-11-20T04:11:08;10.60;;;7.75;;
39750;SDS011;37579;51.074;17.004;2022-11-20T04:13:39;9.60;;;7.35;;
39750;SDS011;37579;51.074;17.004;2022-11-20T04:16:05;10.75;;;7.65;;
39750;SDS011;37579;51.074;17.004;2022-11-20T04:18:32;9.55;;;7.38;;
39750;SDS011;37579;51.074;17.004;2022-11-20T04:20:58;10.20;;;7.53;;
39750;SDS011;37579;51.074;17.004;2022-11-20T04:23:26;10.35;;;7.47;;
39750;SDS011;37579;51.074;17.004;2022-11-20T04:25:52;11.10;;;7.53;;
39750;SDS011;37579;51.074;17.004;2022-11-20T04:28:18;11.63;;;7.85;;
39750;SDS011;37579;51.074;17.004;2022-11-20T04:30:44;10.20;;;7.22;;
39750;SDS011;37579;51.074;17.004;2022-11-20T04:33:09;11.65;;;8.20;;
39750;SDS011;37579;51.074;17.004;2022-11-20T04:35:35;11.38;;;7.50;;
39750;SDS011;37579;51.074;17.004;2022-11-20T04:38:02;10.80;;;7.57;;
39750;SDS011;37579;51.074;17.004;2022-11-20T04:40:27;12.13;;;7.88;;
39750;SDS011;37579;51.074;17.004;2022-11-20T04:42:54;10.60;;;7.28;;
39750;SDS011;37579;51.074;17.004;2022-11-20T04:45:20;11.05;;;7.60;;
39750;SDS011;37579;51.074;17.004;2022-11-20T04:47:46;11.15;;;7.20;;
39750;SDS011;37579;51.074;17.004;2022-11-20T04:50:11;10.07;;;7.22;;
39750;SDS011;37579;51.074;17.004;2022-11-20T04:52:37;10.30;;;7.45;;
39750;SDS011;37579;51.074;17.004;2022-11-20T04:55:03;11.02;;;7.13;;
39750;SDS011;37579;51.074;17.004;2022-11-20T04:57:29;10.45;;;7.50;;
39750;SDS011;37579;51.074;17.004;2022-11-20T04:59:55;10.85;;;7.75;;
39750;SDS011;37579;51.074;17.004;2022-11-20T05:02:20;10.82;;;7.55;;
39750;SDS011;37579;51.074;17.004;2022-11-20T05:04:46;10.50;;;7.47;;
39750;SDS011;37579;51.074;17.004;2022-11-20T05:07:12;10.80;;;7.75;;
39750;SDS011;37579;51.074;17.004;2022-11-20T05:09:38;9.40;;;6.82;;
39750;SDS011;37579;51.074;17.004;2022-11-20T05:12:04;10.27;;;7.35;;
39750;SDS011;37579;51.074;17.004;2022-11-20T05:14:31;10.85;;;7.60;;
39750;SDS011;37579;51.074;17.004;2022-11-20T05:16:57;9.70;;;7.35;;
39750;SDS011;37579;51.074;17.004;2022-11-20T05:19:23;10.18;;;7.25;;
39750;SDS011;37579;51.074;17.004;2022-11-20T05:21:49;9.52;;;7.10;;
39750;SDS011;37579;51.074;17.004;2022-11-20T05:24:14;11.68;;;7.88;;
39750;SDS011;37579;51.074;17.004;2022-11-20T05:26:40;10.57;;;7.68;;
39750;SDS011;37579;51.074;17.004;2022-11-20T05:29:06;10.05;;;7.65;;
39750;SDS011;37579;51.074;17.004;2022-11-20T05:31:31;10.07;;;7.43;;
39750;SDS011;37579;51.074;17.004;2022-11-20T05:33:57;11.07;;;7.93;;
39750;SDS011;37579;51.074;17.004;2022-11-20T05:36:23;9.48;;;7.07;;
39750;SDS011;37579;51.074;17.004;2022-11-20T05:38:49;9.60;;;7.30;;
39750;SDS011;37579;51.074;17.004;2022-11-20T05:41:16;9.95;;;7.43;;
39750;SDS011;37579;51.074;17.004;2022-11-20T05:43:44;10.63;;;7.40;;
39750;SDS011;37579;51.074;17.004;2022-11-20T05:46:12;10.40;;;7.20;;
39750;SDS011;37579;51.074;17.004;2022-11-20T05:48:39;11.07;;;7.45;;
39750;SDS011;37579;51.074;17.004;2022-11-20T05:51:07;9.07;;;7.10;;
39750;SDS011;37579;51.074;17.004;2022-11-20T05:53:36;10.30;;;6.97;;
39750;SDS011;37579;51.074;17.004;2022-11-20T05:56:03;10.07;;;7.28;;
39750;SDS011;37579;51.074;17.004;2022-11-20T05:58:35;9.88;;;7.40;;
39750;SDS011;37579;51.074;17.004;2022-11-20T06:03:33;9.73;;;7.13;;
39750;SDS011;37579;51.074;17.004;2022-11-20T06:06:00;10.98;;;7.50;;
39750;SDS011;37579;51.074;17.004;2022-11-20T06:08:26;11.10;;;7.60;;
39750;SDS011;37579;51.074;17.004;2022-11-20T06:10:52;9.90;;;7.18;;
39750;SDS011;37579;51.074;17.004;2022-11-20T06:13:18;11.15;;;7.55;;
39750;SDS011;37579;51.074;17.004;2022-11-20T06:15:53;10.27;;;7.40;;
39750;SDS011;37579;51.074;17.004;2022-11-20T06:18:19;10.18;;;7.25;;
39750;SDS011;37579;51.074;17.004;2022-11-20T06:20:45;10.10;;;6.97;;
39750;SDS011;37579;51.074;17.004;2022-11-20T06:23:12;9.13;;;6.97;;
39750;SDS011;37579;51.074;17.004;2022-11-20T06:25:41;10.57;;;7.53;;
39750;SDS011;37579;51.074;17.004;2022-11-20T06:28:08;9.98;;;7.20;;
39750;SDS011;37579;51.074;17.004;2022-11-20T06:30:34;9.70;;;6.95;;
39750;SDS011;37579;51.074;17.004;2022-11-20T06:33:00;11.15;;;7.60;;
39750;SDS011;37579;51.074;17.004;2022-11-20T06:35:26;11.10;;;7.63;;
39750;SDS011;37579;51.074;17.004;2022-11-20T06:37:52;10.20;;;7.40;;
39750;SDS011;37579;51.074;17.004;2022-11-20T06:40:18;11.07;;;7.38;;
39750;SDS011;37579;51.074;17.004;2022-11-20T06:42:44;9.27;;;6.75;;
39750;SDS011;37579;51.074;17.004;2022-11-20T06:45:10;10.50;;;7.72;;
39750;SDS011;37579;51.074;17.004;2022-11-20T06:47:35;11.63;;;7.53;;
39750;SDS011;37579;51.074;17.004;2022-11-20T06:50:01;9.75;;;7.47;;
39750;SDS011;37579;51.074;17.004;2022-11-20T06:52:27;11.02;;;7.53;;
39750;SDS011;37579;51.074;17.004;2022-11-20T06:54:53;9.98;;;7.68;;
39750;SDS011;37579;51.074;17.004;2022-11-20T06:57:18;10.32;;;7.35;;
39750;SDS011;37579;51.074;17.004;2022-11-20T06:59:44;11.35;;;7.85;;
39750;SDS011;37579;51.074;17.004;2022-11-20T07:02:12;10.15;;;7.50;;
39750;SDS011;37579;51.074;17.004;2022-11-20T07:04:38;9.85;;;7.25;;
39750;SDS011;37579;51.074;17.004;2022-11-20T07:07:04;10.48;;;7.82;;
39750;SDS011;37579;51.074;17.004;2022-11-20T07:09:31;10.73;;;7.30;;
39750;SDS011;37579;51.074;17.004;2022-11-20T07:11:58;10.82;;;7.63;;
39750;SDS011;37579;51.074;17.004;2022-11-20T07:14:24;10.65;;;7.47;;
39750;SDS011;37579;51.074;17.004;2022-11-20T07:16:49;11.25;;;7.38;;
39750;SDS011;37579;51.074;17.004;2022-11-20T07:19:15;10.52;;;7.68;;
39750;SDS011;37579;51.074;17.004;2022-11-20T07:21:41;11.57;;;7.60;;
39750;SDS011;37579;51.074;17.004;2022-11-20T07:24:06;10.43;;;7.75;;
39750;SDS011;37579;51.074;17.004;2022-11-20T07:26:32;10.73;;;7.65;;
39750;SDS011;37579;51.074;17.004;2022-11-20T07:28:58;10.75;;;8.07;;
39750;SDS011;37579;51.074;17.004;2022-11-20T07:31:24;10.02;;;7.32;;
39750;SDS011;37579;51.074;17.004;2022-11-20T07:33:49;11.15;;;8.10;;
39750;SDS011;37579;51.074;17.004;2022-11-20T07:36:15;10.18;;;7.32;;
39750;SDS011;37579;51.074;17.004;2022-11-20T07:38:41;10.35;;;7.75;;
39750;SDS011;37579;51.074;17.004;2022-11-20T07:41:06;10.75;;;8.10;;
39750;SDS011;37579;51.074;17.004;2022-11-20T07:43:32;10.55;;;8.15;;
39750;SDS011;37579;51.074;17.004;2022-11-20T07:45:58;11.65;;;8.13;;
39750;SDS011;37579;51.074;17.004;2022-11-20T07:48:24;11.15;;;8.18;;
39750;SDS011;37579;51.074;17.004;2022-11-20T07:50:54;10.68;;;7.80;;
39750;SDS011;37579;51.074;17.004;2022-11-20T07:53:20;10.40;;;7.60;;
39750;SDS011;37579;51.074;17.004;2022-11-20T07:55:46;12.20;;;8.05;;
39750;SDS011;37579;51.074;17.004;2022-11-20T07:58:13;11.43;;;8.15;;
39750;SDS011;37579;51.074;17.004;2022-11-20T08:00:39;10.10;;;7.82;;
39750;SDS011;37579;51.074;17.004;2022-11-20T08:03:05;10.95;;;7.93;;
39750;SDS011;37579;51.074;17.004;2022-11-20T08:05:32;11.95;;;8.43;;
39750;SDS011;37579;51.074;17.004;2022-11-20T08:07:58;11.55;;;8.38;;
39750;SDS011;37579;51.074;17.004;2022-11-20T08:10:24;11.35;;;8.00;;
39750;SDS011;37579;51.074;17.004;2022-11-20T08:12:50;12.23;;;7.85;;
39750;SDS011;37579;51.074;17.004;2022-11-20T08:15:36;10.65;;;7.97;;
39750;SDS011;37579;51.074;17.004;2022-11-20T08:18:04;11.48;;;7.82;;
39750;SDS011;37579;51.074;17.004;2022-11-20T08:20:30;11.93;;;8.50;;
39750;SDS011;37579;51.074;17.004;2022-11-20T08:23:00;11.88;;;7.80;;
39750;SDS011;37579;51.074;17.004;2022-11-20T08:25:27;10.13;;;8.13;;
39750;SDS011;37579;51.074;17.004;2022-11-20T08:27:56;10.88;;;7.88;;
39750;SDS011;37579;51.074;17.004;2022-11-20T08:30:26;11.43;;;7.90;;
39750;SDS011;37579;51.074;17.004;2022-11-20T08:32:52;9.52;;;7.32;;
39750;SDS011;37579;51.074;17.004;2022-11-20T08:35:18;9.40;;;7.85;;
39750;SDS011;37579;51.074;17.004;2022-11-20T08:37:47;10.65;;;8.23;;
39750;SDS011;37579;51.074;17.004;2022-11-20T08:40:13;12.20;;;8.43;;
39750;SDS011;37579;51.074;17.004;2022-11-20T08:42:46;12.30;;;7.78;;
39750;SDS011;37579;51.074;17.004;2022-11-20T08:47:39;10.95;;;8.10;;
39750;SDS011;37579;51.074;17.004;2022-11-20T08:50:05;10.48;;;7.70;;
39750;SDS011;37579;51.074;17.004;2022-11-20T08:52:31;10.00;;;7.47;;
39750;SDS011;37579;51.074;17.004;2022-11-20T08:54:56;10.93;;;7.68;;
39750;SDS011;37579;51.074;17.004;2022-11-20T08:57:22;9.90;;;7.35;;
39750;SDS011;37579;51.074;17.004;2022-11-20T08:59:48;10.75;;;7.93;;
39750;SDS011;37579;51.074;17.004;2022-11-20T09:02:14;9.98;;;7.43;;
39750;SDS011;37579;51.074;17.004;2022-11-20T09:04:40;11.30;;;7.70;;
39750;SDS011;37579;51.074;17.004;2022-11-20T09:07:06;11.00;;;8.13;;
39750;SDS011;37579;51.074;17.004;2022-11-20T09:09:31;10.27;;;8.05;;
39750;SDS011;37579;51.074;17.004;2022-11-20T09:11:58;11.18;;;8.10;;
39750;SDS011;37579;51.074;17.004;2022-11-20T09:14:23;10.70;;;7.75;;
39750;SDS011;37579;51.074;17.004;2022-11-20T09:16:54;10.65;;;7.57;;
39750;SDS011;37579;51.074;17.004;2022-11-20T09:19:20;10.57;;;7.72;;
39750;SDS011;37579;51.074;17.004;2022-11-20T09:21:46;9.25;;;6.97;;
39750;SDS011;37579;51.074;17.004;2022-11-20T09:24:12;10.90;;;7.90;;
39750;SDS011;37579;51.074;17.004;2022-11-20T09:26:37;10.20;;;7.60;;
39750;SDS011;37579;51.074;17.004;2022-11-20T09:29:03;9.73;;;7.60;;
39750;SDS011;37579;51.074;17.004;2022-11-20T09:31:29;10.38;;;7.40;;
39750;SDS011;37579;51.074;17.004;2022-11-20T09:33:54;9.65;;;7.63;;
39750;SDS011;37579;51.074;17.004;2022-11-20T09:36:20;10.60;;;7.82;;
39750;SDS011;37579;51.074;17.004;2022-11-20T09:38:46;11.45;;;7.63;;
39750;SDS011;37579;51.074;17.004;2022-11-20T09:41:25;9.95;;;7.53;;
39750;SDS011;37579;51.074;17.004;2022-11-20T09:46:57;10.02;;;7.75;;
39750;SDS011;37579;51.074;17.004;2022-11-20T09:52:38;10.68;;;7.70;;
39750;SDS011;37579;51.074;17.004;2022-11-20T09:55:13;9.02;;;6.80;;
39750;SDS011;37579;51.074;17.004;2022-11-20T09:57:41;8.68;;;6.70;;
39750;SDS011;37579;51.074;17.004;2022-11-20T10:00:11;9.75;;;7.57;;
39750;SDS011;37579;51.074;17.004;2022-11-20T10:05:25;10.70;;;7.50;;
39750;SDS011;37579;51.074;17.004;2022-11-20T10:08:04;10.60;;;7.47;;
39750;SDS011;37579;51.074;17.004;2022-11-20T10:19:18;8.43;;;6.78;;
39750;SDS011;37579;51.074;17.004;2022-11-20T10:30:40;9.20;;;6.80;;
39750;SDS011;37579;51.074;17.004;2022-11-20T10:33:14;10.90;;;7.38;;
39750;SDS011;37579;51.074;17.004;2022-11-20T10:36:06;10.00;;;7.45;;
39750;SDS011;37579;51.074;17.004;2022-11-20T10:38:37;9.98;;;6.85;;
39750;SDS011;37579;51.074;17.004;2022-11-20T10:41:07;8.55;;;6.93;;
39750;SDS011;37579;51.074;17.004;2022-11-20T10:44:12;9.73;;;6.97;;
39750;SDS011;37579;51.074;17.004;2022-11-20T10:46:40;9.35;;;7.22;;
39750;SDS011;37579;51.074;17.004;2022-11-20T10:49:14;9.10;;;6.47;;
39750;SDS011;37579;51.074;17.004;2022-11-20T10:51:56;8.85;;;6.57;;
39750;SDS011;37579;51.074;17.004;2022-11-20T10:57:18;9.68;;;6.78;;
39750;SDS011;37579;51.074;17.004;2022-11-20T11:02:22;8.93;;;6.75;;
39750;SDS011;37579;51.074;17.004;2022-11-20T11:04:50;9.15;;;6.78;;
39750;SDS011;37579;51.074;17.004;2022-11-20T11:07:20;8.88;;;6.57;;
39750;SDS011;37579;51.074;17.004;2022-11-20T11:09:50;8.93;;;6.55;;
39750;SDS011;37579;51.074;17.004;2022-11-20T11:12:19;9.15;;;7.20;;
39750;SDS011;37579;51.074;17.004;2022-11-20T11:14:48;7.53;;;5.75;;
39750;SDS011;37579;51.074;17.004;2022-11-20T11:17:23;8.75;;;6.28;;
39750;SDS011;37579;51.074;17.004;2022-11-20T11:22:23;8.65;;;6.43;;
39750;SDS011;37579;51.074;17.004;2022-11-20T11:24:52;9.52;;;6.82;;
39750;SDS011;37579;51.074;17.004;2022-11-20T11:27:18;8.27;;;6.22;;
39750;SDS011;37579;51.074;17.004;2022-11-20T11:29:45;8.20;;;6.07;;
39750;SDS011;37579;51.074;17.004;2022-11-20T11:32:12;7.07;;;5.75;;
39750;SDS011;37579;51.074;17.004;2022-11-20T11:34:58;8.15;;;5.90;;
39750;SDS011;37579;51.074;17.004;2022-11-20T11:37:25;7.78;;;6.38;;
39750;SDS011;37579;51.074;17.004;2022-11-20T11:39:59;7.93;;;6.38;;
39750;SDS011;37579;51.074;17.004;2022-11-20T11:42:26;9.80;;;6.47;;
39750;SDS011;37579;51.074;17.004;2022-11-20T11:44:54;7.88;;;6.05;;
39750;SDS011;37579;51.074;17.004;2022-11-20T11:47:31;8.60;;;6.07;;
39750;SDS011;37579;51.074;17.004;2022-11-20T11:58:11;8.45;;;6.30;;
39750;SDS011;37579;51.074;17.004;2022-11-20T12:00:45;6.63;;;5.38;;
39750;SDS011;37579;51.074;17.004;2022-11-20T12:03:28;7.38;;;5.35;;
39750;SDS011;37579;51.074;17.004;2022-11-20T12:06:02;7.30;;;5.80;;
39750;SDS011;37579;51.074;17.004;2022-11-20T12:11:24;7.72;;;5.85;;
39750;SDS011;37579;51.074;17.004;2022-11-20T12:14:00;7.90;;;5.68;;
39750;SDS011;37579;51.074;17.004;2022-11-20T12:16:35;7.57;;;5.47;;
39750;SDS011;37579;51.074;17.004;2022-11-20T12:19:04;8.07;;;5.93;;
39750;SDS011;37579;51.074;17.004;2022-11-20T12:21:43;8.15;;;5.57;;
39750;SDS011;37579;51.074;17.004;2022-11-20T12:24:46;7.75;;;5.85;;
39750;SDS011;37579;51.074;17.004;2022-11-20T12:30:02;8.52;;;5.88;;
39750;SDS011;37579;51.074;17.004;2022-11-20T12:41:23;6.88;;;5.35;;
39750;SDS011;37579;51.074;17.004;2022-11-20T12:44:42;7.55;;;5.15;;
39750;SDS011;37579;51.074;17.004;2022-11-20T12:53:04;6.97;;;5.53;;
39750;SDS011;37579;51.074;17.004;2022-11-20T13:06:51;6.40;;;4.97;;
39750;SDS011;37579;51.074;17.004;2022-11-20T13:09:18;6.20;;;5.10;;
39750;SDS011;37579;51.074;17.004;2022-11-20T13:11:48;7.18;;;5.30;;
39750;SDS011;37579;51.074;17.004;2022-11-20T13:19:36;8.00;;;5.65;;
39750;SDS011;37579;51.074;17.004;2022-11-20T13:22:03;7.05;;;5.18;;
39750;SDS011;37579;51.074;17.004;2022-11-20T13:24:32;7.90;;;5.40;;
39750;SDS011;37579;51.074;17.004;2022-11-20T13:27:05;7.82;;;5.35;;
39750;SDS011;37579;51.074;17.004;2022-11-20T13:29:45;7.35;;;5.47;;
39750;SDS011;37579;51.074;17.004;2022-11-20T13:32:23;6.90;;;4.78;;
39750;SDS011;37579;51.074;17.004;2022-11-20T13:34:53;7.55;;;4.63;;
39750;SDS011;37579;51.074;17.004;2022-11-20T13:40:11;6.90;;;5.00;;
39750;SDS011;37579;51.074;17.004;2022-11-20T13:42:40;6.78;;;5.20;;
39750;SDS011;37579;51.074;17.004;2022-11-20T13:47:52;6.07;;;4.60;;
39750;SDS011;37579;51.074;17.004;2022-11-20T13:50:19;6.45;;;4.63;;
39750;SDS011;37579;51.074;17.004;2022-11-20T13:53:03;6.10;;;4.80;;
39750;SDS011;37579;51.074;17.004;2022-11-20T13:58:55;6.85;;;5.07;;
39750;SDS011;37579;51.074;17.004;2022-11-20T14:01:31;6.47;;;4.65;;
39750;SDS011;37579;51.074;17.004;2022-11-20T14:03:58;6.43;;;5.00;;
39750;SDS011;37579;51.074;17.004;2022-11-20T14:06:27;6.18;;;5.03;;
39750;SDS011;37579;51.074;17.004;2022-11-20T14:08:56;7.57;;;5.32;;
39750;SDS011;37579;51.074;17.004;2022-11-20T14:11:27;7.20;;;5.13;;
39750;SDS011;37579;51.074;17.004;2022-11-20T14:16:40;6.30;;;4.85;;
39750;SDS011;37579;51.074;17.004;2022-11-20T14:21:46;6.70;;;4.57;;
39750;SDS011;37579;51.074;17.004;2022-11-20T14:24:12;5.60;;;4.43;;
39750;SDS011;37579;51.074;17.004;2022-11-20T14:26:42;6.07;;;4.88;;
39750;SDS011;37579;51.074;17.004;2022-11-20T14:29:13;6.70;;;5.30;;
39750;SDS011;37579;51.074;17.004;2022-11-20T14:31:40;5.93;;;4.50;;
39750;SDS011;37579;51.074;17.004;2022-11-20T14:35:08;6.00;;;4.82;;
39750;SDS011;37579;51.074;17.004;2022-11-20T14:37:05;6.90;;;5.05;;
39750;SDS011;37579;51.074;17.004;2022-11-20T14:39:37;6.05;;;4.65;;
39750;SDS011;37579;51.074;17.004;2022-11-20T14:42:16;5.40;;;4.43;;
39750;SDS011;37579;51.074;17.004;2022-11-20T14:44:43;6.55;;;5.00;;
39750;SDS011;37579;51.074;17.004;2022-11-20T14:47:11;7.25;;;4.95;;
39750;SDS011;37579;51.074;17.004;2022-11-20T14:49:38;5.85;;;4.78;;
39750;SDS011;37579;51.074;17.004;2022-11-20T14:57:27;6.70;;;4.45;;
39750;SDS011;37579;51.074;17.004;2022-11-20T15:02:31;6.25;;;5.00;;
39750;SDS011;37579;51.074;17.004;2022-11-20T15:04:57;7.93;;;5.40;;
39750;SDS011;37579;51.074;17.004;2022-11-20T15:07:25;7.55;;;4.40;;
39750;SDS011;37579;51.074;17.004;2022-11-20T15:10:06;6.78;;;4.88;;
39750;SDS011;37579;51.074;17.004;2022-11-20T15:12:36;8.23;;;4.68;;
39750;SDS011;37579;51.074;17.004;2022-11-20T15:15:05;6.45;;;5.10;;
39750;SDS011;37579;51.074;17.004;2022-11-20T15:17:32;10.35;;;5.57;;
39750;SDS011;37579;51.074;17.004;2022-11-20T15:20:08;8.05;;;5.38;;
39750;SDS011;37579;51.074;17.004;2022-11-20T15:22:39;8.05;;;5.25;;
39750;SDS011;37579;51.074;17.004;2022-11-20T15:25:15;7.30;;;5.10;;
39750;SDS011;37579;51.074;17.004;2022-11-20T15:27:42;9.25;;;5.28;;
39750;SDS011;37579;51.074;17.004;2022-11-20T15:30:16;9.00;;;5.45;;
39750;SDS011;37579;51.074;17.004;2022-11-20T15:32:44;9.70;;;5.85;;
39750;SDS011;37579;51.074;17.004;2022-11-20T15:35:11;11.02;;;6.10;;
39750;SDS011;37579;51.074;17.004;2022-11-20T15:37:39;10.13;;;6.43;;
39750;SDS011;37579;51.074;17.004;2022-11-20T15:40:05;10.98;;;7.40;;
39750;SDS011;37579;51.074;17.004;2022-11-20T15:42:32;10.75;;;6.78;;
39750;SDS011;37579;51.074;17.004;2022-11-20T15:44:59;9.77;;;6.53;;
39750;SDS011;37579;51.074;17.004;2022-11-20T15:47:25;9.48;;;7.00;;
39750;SDS011;37579;51.074;17.004;2022-11-20T15:49:56;11.75;;;6.22;;
39750;SDS011;37579;51.074;17.004;2022-11-20T15:52:22;13.35;;;7.40;;
39750;SDS011;37579;51.074;17.004;2022-11-20T15:54:47;9.52;;;6.60;;
39750;SDS011;37579;51.074;17.004;2022-11-20T15:57:13;10.77;;;6.57;;
39750;SDS011;37579;51.074;17.004;2022-11-20T15:59:39;16.73;;;7.03;;
39750;SDS011;37579;51.074;17.004;2022-11-20T16:02:10;11.32;;;6.75;;
39750;SDS011;37579;51.074;17.004;2022-11-20T16:04:37;10.93;;;6.45;;
39750;SDS011;37579;51.074;17.004;2022-11-20T16:07:03;9.20;;;6.38;;
39750;SDS011;37579;51.074;17.004;2022-11-20T16:09:29;10.82;;;6.03;;
39750;SDS011;37579;51.074;17.004;2022-11-20T16:11:55;9.82;;;6.43;;
39750;SDS011;37579;51.074;17.004;2022-11-20T16:14:23;9.73;;;6.35;;
39750;SDS011;37579;51.074;17.004;2022-11-20T16:17:07;10.45;;;6.43;;
39750;SDS011;37579;51.074;17.004;2022-11-20T16:19:32;9.32;;;6.60;;
39750;SDS011;37579;51.074;17.004;2022-11-20T16:21:58;8.88;;;6.47;;
39750;SDS011;37579;51.074;17.004;2022-11-20T16:24:27;10.13;;;6.68;;
39750;SDS011;37579;51.074;17.004;2022-11-20T16:26:53;10.65;;;5.72;;